createdAt,value
2022-09-26T00:01:37.014Z,0.50
2022-09-26T00:04:10.442Z,0.63
2022-09-26T00:06:37.457Z,0.55
2022-09-26T00:09:04.531Z,0.73
2022-09-26T00:11:33.387Z,1.13
2022-09-26T00:14:04.708Z,1.67
2022-09-26T00:16:32.854Z,0.70
2022-09-26T00:19:01.091Z,0.80
2022-09-26T00:21:30.091Z,0.82
2022-09-26T00:23:58.433Z,0.50
2022-09-26T00:26:27.046Z,0.60
2022-09-26T00:28:55.541Z,0.65
2022-09-26T00:31:25.849Z,0.60
2022-09-26T00:33:53.257Z,0.85
2022-09-26T00:36:20.150Z,0.73
2022-09-26T00:38:47.052Z,0.93
2022-09-26T00:41:14.511Z,0.90
2022-09-26T00:43:48.750Z,0.88
2022-09-26T00:46:27.583Z,1.48
2022-09-26T00:49:13.036Z,0.90
2022-09-26T00:51:42.732Z,2.08
2022-09-26T00:54:12.811Z,1.38
2022-09-26T00:56:42.461Z,1.35
2022-09-26T00:59:18.720Z,1.10
2022-09-26T01:01:45.790Z,1.52
2022-09-26T01:04:13.604Z,2.63
2022-09-26T01:06:40.966Z,1.30
2022-09-26T01:09:09.248Z,2.17
2022-09-26T01:11:41.384Z,1.58
2022-09-26T01:14:10.650Z,1.02
2022-09-26T01:16:40.050Z,1.35
2022-09-26T01:19:21.024Z,1.05
2022-09-26T01:22:25.291Z,1.83
2022-09-26T01:25:33.762Z,1.27
2022-09-26T01:28:18.510Z,1.40
2022-09-26T01:30:56.501Z,1.30
2022-09-26T01:33:25.925Z,1.50
2022-09-26T01:36:23.091Z,2.30
2022-09-26T01:38:56.341Z,2.03
2022-09-26T01:41:42.696Z,1.63
2022-09-26T01:44:18.433Z,2.60
2022-09-26T01:46:52.445Z,2.10
2022-09-26T01:49:26.298Z,2.92
2022-09-26T01:52:07.990Z,1.65
2022-09-26T01:54:47.820Z,2.33
2022-09-26T01:57:28.729Z,2.63
2022-09-26T02:00:01.383Z,3.08
2022-09-26T02:02:34.327Z,2.80
2022-09-26T02:05:08.099Z,2.08
2022-09-26T02:07:43.691Z,2.55
2022-09-26T02:10:18.686Z,4.65
2022-09-26T02:12:55.094Z,4.72
2022-09-26T02:15:26.926Z,4.20
2022-09-26T02:18:01.471Z,3.78
2022-09-26T02:20:35.112Z,3.40
2022-09-26T02:23:05.144Z,4.25
2022-09-26T02:25:33.077Z,4.10
2022-09-26T02:28:00.293Z,4.75
2022-09-26T02:30:27.226Z,4.00
2022-09-26T02:32:53.916Z,4.50
2022-09-26T02:35:41.077Z,4.43
2022-09-26T02:38:08.015Z,5.20
2022-09-26T02:40:42.433Z,6.85
2022-09-26T02:43:35.088Z,4.45
2022-09-26T02:46:40.874Z,4.22
2022-09-26T02:49:21.811Z,5.75
2022-09-26T02:52:13.817Z,7.80
2022-09-26T02:54:53.907Z,5.13
2022-09-26T02:57:26.881Z,4.57
2022-09-26T03:00:09.331Z,5.68
2022-09-26T03:02:42.885Z,4.60
2022-09-26T03:05:22.207Z,6.10
2022-09-26T03:07:56.822Z,5.05
2022-09-26T03:10:27.273Z,5.07
2022-09-26T03:12:57.842Z,6.18
2022-09-26T03:15:26.844Z,5.40
2022-09-26T03:17:55.079Z,6.82
2022-09-26T03:20:23.262Z,5.97
2022-09-26T03:22:51.118Z,5.88
2022-09-26T03:25:24.347Z,5.00
2022-09-26T03:27:53.140Z,5.15
2022-09-26T03:30:21.826Z,8.15
2022-09-26T03:32:50.680Z,5.53
2022-09-26T03:35:17.475Z,5.85
2022-09-26T03:37:47.953Z,4.97
2022-09-26T03:40:15.373Z,5.60
2022-09-26T03:42:43.499Z,6.28
2022-09-26T03:45:11.066Z,6.55
2022-09-26T03:47:42.109Z,6.32
2022-09-26T03:50:09.485Z,5.70
2022-09-26T03:52:36.722Z,6.93
2022-09-26T03:55:04.710Z,6.10
2022-09-26T03:57:31.521Z,8.77
2022-09-26T03:59:58.375Z,7.78
2022-09-26T04:02:25.257Z,9.07
2022-09-26T04:04:52.077Z,8.18
2022-09-26T04:07:18.774Z,6.95
2022-09-26T04:09:45.482Z,8.30
2022-09-26T04:12:12.158Z,6.60
2022-09-26T04:14:39.979Z,8.75
2022-09-26T04:17:06.725Z,9.23
2022-09-26T04:19:33.805Z,7.72
2022-09-26T04:22:01.053Z,9.15
2022-09-26T04:24:28.009Z,6.80
2022-09-26T04:26:54.703Z,6.50
2022-09-26T04:29:21.703Z,7.53
2022-09-26T04:31:48.592Z,6.10
2022-09-26T04:34:16.018Z,8.30
2022-09-26T04:36:43.767Z,7.80
2022-09-26T04:39:10.706Z,6.95
2022-09-26T04:41:39.437Z,7.15
2022-09-26T04:44:06.182Z,6.40
2022-09-26T04:46:33.728Z,4.82
2022-09-26T04:49:01.214Z,7.47
2022-09-26T04:51:31.652Z,7.85
2022-09-26T04:53:59.032Z,6.13
2022-09-26T04:56:28.722Z,7.05
2022-09-26T04:58:57.002Z,6.15
2022-09-26T05:01:24.245Z,7.85
2022-09-26T05:03:51.381Z,7.03
2022-09-26T05:06:18.598Z,6.53
2022-09-26T05:08:49.269Z,6.05
2022-09-26T05:11:17.946Z,7.47
2022-09-26T05:13:45.115Z,7.40
2022-09-26T05:16:13.293Z,6.30
2022-09-26T05:18:40.465Z,6.10
2022-09-26T05:21:07.942Z,6.50
2022-09-26T05:23:55.660Z,6.88
2022-09-26T05:26:22.571Z,7.75
2022-09-26T05:28:58.194Z,8.02
2022-09-26T05:31:27.550Z,6.45
2022-09-26T05:33:57.192Z,6.53
2022-09-26T05:36:25.393Z,5.65
2022-09-26T05:38:52.856Z,6.93
2022-09-26T05:41:20.850Z,5.93
2022-09-26T05:43:47.907Z,5.72
2022-09-26T05:46:16.085Z,7.72
2022-09-26T05:48:42.989Z,7.18
2022-09-26T05:51:15.699Z,5.78
2022-09-26T05:53:44.573Z,6.30
2022-09-26T05:56:18.305Z,8.45
2022-09-26T05:58:45.721Z,5.53
2022-09-26T06:01:15.271Z,5.55
2022-09-26T06:03:44.129Z,6.75
2022-09-26T06:06:18.515Z,5.40
2022-09-26T06:08:46.170Z,7.07
2022-09-26T06:11:18.528Z,4.35
2022-09-26T06:13:46.041Z,4.75
2022-09-26T06:16:19.567Z,6.40
2022-09-26T06:18:47.930Z,4.55
2022-09-26T06:21:17.441Z,4.13
2022-09-26T06:23:44.562Z,5.47
2022-09-26T06:26:15.833Z,4.40
2022-09-26T06:28:42.541Z,5.30
2022-09-26T06:31:14.873Z,6.07
2022-09-26T06:33:41.922Z,5.28
2022-09-26T06:36:10.836Z,5.63
2022-09-26T06:38:38.896Z,5.25
2022-09-26T06:41:07.598Z,6.18
2022-09-26T06:43:34.509Z,6.35
2022-09-26T06:46:01.460Z,6.05
2022-09-26T06:48:28.173Z,6.75
2022-09-26T06:50:57.200Z,4.25
2022-09-26T06:53:24.019Z,5.43
2022-09-26T06:55:50.774Z,5.05
2022-09-26T06:58:21.986Z,5.32
2022-09-26T07:00:48.898Z,5.75
2022-09-26T07:03:16.083Z,4.70
2022-09-26T07:05:45.317Z,4.18
2022-09-26T07:08:12.175Z,5.63
2022-09-26T07:10:38.923Z,4.05
2022-09-26T07:13:08.577Z,4.65
2022-09-26T07:15:37.152Z,5.57
2022-09-26T07:18:06.510Z,4.00
2022-09-26T07:20:37.595Z,3.80
2022-09-26T07:23:08.613Z,5.78
2022-09-26T07:25:35.408Z,5.85
2022-09-26T07:28:02.201Z,3.65
2022-09-26T07:30:28.936Z,5.45
2022-09-26T07:33:03.184Z,4.03
2022-09-26T07:35:35.456Z,5.43
2022-09-26T07:38:05.164Z,3.55
2022-09-26T07:40:32.002Z,3.00
2022-09-26T07:46:09.945Z,3.60
2022-09-26T07:49:02.943Z,4.40
2022-09-26T07:51:32.505Z,3.92
2022-09-26T07:53:59.285Z,2.78
2022-09-26T07:56:25.959Z,3.45
2022-09-26T07:58:55.441Z,3.08
2022-09-26T08:01:22.254Z,4.32
2022-09-26T08:03:49.132Z,3.47
2022-09-26T08:06:20.255Z,4.47
2022-09-26T08:08:48.304Z,4.05
2022-09-26T08:11:17.057Z,4.45
2022-09-26T08:13:44.782Z,2.90
2022-09-26T08:16:13.622Z,4.40
2022-09-26T08:18:40.369Z,2.63
2022-09-26T08:21:07.360Z,2.13
2022-09-26T08:23:34.759Z,2.60
2022-09-26T08:26:07.147Z,2.50
2022-09-26T08:28:34.870Z,2.28
2022-09-26T08:31:03.071Z,2.45
2022-09-26T08:33:30.028Z,3.15
2022-09-26T08:36:03.634Z,2.47
2022-09-26T08:38:30.582Z,2.63
2022-09-26T08:41:13.392Z,3.05
2022-09-26T08:43:45.298Z,3.65
2022-09-26T08:46:59.732Z,2.08
2022-09-26T08:49:40.088Z,2.35
2022-09-26T08:52:29.545Z,4.88
2022-09-26T08:54:59.523Z,3.45
2022-09-26T08:57:42.143Z,3.20
2022-09-26T09:00:22.608Z,2.90
2022-09-26T09:02:58.179Z,2.38
2022-09-26T09:05:48.811Z,2.80
2022-09-26T09:08:22.260Z,2.30
2022-09-26T09:11:13.601Z,4.20
2022-09-26T09:13:48.642Z,3.83
2022-09-26T09:16:27.978Z,3.35
2022-09-26T09:19:34.474Z,3.22
2022-09-26T09:22:13.296Z,2.58
2022-09-26T09:25:03.379Z,2.53
2022-09-26T09:28:07.896Z,2.67
2022-09-26T09:31:00.175Z,3.20
2022-09-26T09:33:39.579Z,2.13
2022-09-26T09:36:15.076Z,3.60
2022-09-26T09:38:48.841Z,2.15
2022-09-26T09:41:19.829Z,2.75
2022-09-26T09:43:54.656Z,3.50
2022-09-26T09:46:51.054Z,2.65
2022-09-26T09:49:22.578Z,2.83
2022-09-26T09:52:01.122Z,3.55
2022-09-26T09:54:47.620Z,2.58
2022-09-26T09:57:17.557Z,2.20
2022-09-26T10:00:10.667Z,2.30
2022-09-26T10:05:30.548Z,3.17
2022-09-26T10:07:59.224Z,2.58
2022-09-26T10:10:49.867Z,3.72
2022-09-26T10:13:19.238Z,2.22
2022-09-26T10:15:59.124Z,2.05
2022-09-26T10:18:27.185Z,2.30
2022-09-26T10:20:55.419Z,2.00
2022-09-26T10:23:27.941Z,1.80
2022-09-26T10:26:00.738Z,1.70
2022-09-26T10:28:31.317Z,1.70
2022-09-26T10:31:10.783Z,1.50
2022-09-26T10:33:44.429Z,3.05
2022-09-26T10:36:20.023Z,2.47
2022-09-26T10:39:16.247Z,2.20
2022-09-26T10:41:45.290Z,1.88
2022-09-26T10:44:23.405Z,1.95
2022-09-26T10:46:52.410Z,2.25
2022-09-26T10:49:24.152Z,1.27
2022-09-26T10:52:08.430Z,1.30
2022-09-26T10:54:42.962Z,1.30
2022-09-26T10:57:20.225Z,1.63
2022-09-26T10:59:48.693Z,1.52
2022-09-26T11:02:24.798Z,1.75
2022-09-26T11:05:15.353Z,1.02
2022-09-26T11:07:46.701Z,0.80
2022-09-26T11:10:22.754Z,1.17
2022-09-26T11:13:16.152Z,1.08
2022-09-26T11:16:14.033Z,2.25
2022-09-26T11:19:08.425Z,0.80
2022-09-26T11:21:51.529Z,0.85
2022-09-26T11:24:43.613Z,1.67
2022-09-26T11:27:34.897Z,1.38
2022-09-26T11:30:30.657Z,1.08
2022-09-26T11:33:05.480Z,1.13
2022-09-26T11:35:53.892Z,1.20
2022-09-26T11:38:39.910Z,1.02
2022-09-26T11:41:38.294Z,1.65
2022-09-26T11:44:26.499Z,1.27
2022-09-26T11:47:01.945Z,0.90
2022-09-26T11:49:52.646Z,1.23
2022-09-26T11:52:53.075Z,1.30
2022-09-26T11:55:24.356Z,1.00
2022-09-26T11:58:16.838Z,1.52
2022-09-26T12:03:59.178Z,1.90
2022-09-26T12:06:33.729Z,1.20
2022-09-26T12:09:27.639Z,1.25
2022-09-26T12:12:03.326Z,1.15
2022-09-26T12:14:53.993Z,1.15
2022-09-26T12:17:59.700Z,0.90
2022-09-26T12:20:45.365Z,1.88
2022-09-26T12:23:32.326Z,0.82
2022-09-26T12:26:23.482Z,0.68
2022-09-26T12:29:08.699Z,1.05
2022-09-26T12:31:35.557Z,0.88
2022-09-26T12:34:14.225Z,0.65
2022-09-26T12:36:58.067Z,0.73
2022-09-26T12:39:43.102Z,0.70
2022-09-26T12:42:32.509Z,0.70
2022-09-26T12:45:24.516Z,1.00
2022-09-26T12:48:18.713Z,1.20
2022-09-26T12:50:54.207Z,0.55
2022-09-26T12:53:39.425Z,0.70
2022-09-26T12:56:15.543Z,1.20
2022-09-26T12:59:07.606Z,1.08
2022-09-26T13:01:43.645Z,0.90
2022-09-26T13:04:34.671Z,1.23
2022-09-26T13:07:40.674Z,2.15
2022-09-26T13:10:20.727Z,1.80
2022-09-26T13:13:18.329Z,1.50
2022-09-26T13:15:55.304Z,0.90
2022-09-26T13:18:35.320Z,1.25
2022-09-26T13:21:12.177Z,1.83
2022-09-26T13:23:55.920Z,1.00
2022-09-26T13:26:37.238Z,1.08
2022-09-26T13:29:17.535Z,0.73
2022-09-26T13:31:55.496Z,1.17
2022-09-26T13:34:39.353Z,1.08
2022-09-26T13:37:28.783Z,1.00
2022-09-26T13:40:11.142Z,1.10
2022-09-26T13:42:47.498Z,0.52
2022-09-26T13:45:44.254Z,1.25
2022-09-26T13:48:24.344Z,1.33
2022-09-26T13:50:55.955Z,1.08
2022-09-26T13:53:51.842Z,1.42
2022-09-26T13:56:34.142Z,1.10
2022-09-26T13:59:12.860Z,1.50
2022-09-26T14:02:00.242Z,1.00
2022-09-26T14:04:37.140Z,0.88
2022-09-26T14:07:26.719Z,0.70
2022-09-26T14:10:03.384Z,1.10
2022-09-26T14:12:51.258Z,1.08
2022-09-26T14:15:24.222Z,1.23
2022-09-26T14:17:51.046Z,1.25
2022-09-26T14:20:27.407Z,1.27
2022-09-26T14:22:58.400Z,3.25
2022-09-26T14:25:46.410Z,1.23
2022-09-26T14:28:35.997Z,1.95
2022-09-26T14:31:24.414Z,2.10
2022-09-26T14:34:16.865Z,1.90
2022-09-26T14:36:45.772Z,1.17
2022-09-26T14:39:29.600Z,2.25
2022-09-26T14:41:57.285Z,1.25
2022-09-26T14:44:31.533Z,1.55
2022-09-26T14:47:06.437Z,1.38
2022-09-26T14:49:33.357Z,1.30
2022-09-26T14:52:07.517Z,2.20
2022-09-26T14:54:41.050Z,1.45
2022-09-26T14:57:21.239Z,1.35
2022-09-26T14:59:48.452Z,1.85
2022-09-26T15:02:17.767Z,3.92
2022-09-26T15:05:06.951Z,2.92
2022-09-26T15:07:44.828Z,1.25
2022-09-26T15:10:21.831Z,1.52
2022-09-26T15:12:57.121Z,1.15
2022-09-26T15:15:48.636Z,1.10
2022-09-26T15:18:27.617Z,2.00
2022-09-26T15:21:40.339Z,1.30
2022-09-26T15:27:01.192Z,1.50
2022-09-26T15:29:28.075Z,1.98
2022-09-26T15:31:56.050Z,2.00
2022-09-26T15:34:30.629Z,1.85
2022-09-26T15:36:59.114Z,2.30
2022-09-26T15:39:31.765Z,1.38
2022-09-26T15:42:29.244Z,1.88
2022-09-26T15:45:00.978Z,2.63
2022-09-26T15:47:30.362Z,1.55
2022-09-26T15:50:23.479Z,1.90
2022-09-26T15:52:55.623Z,1.20
2022-09-26T15:57:58.672Z,2.08
2022-09-26T16:00:25.759Z,1.20
2022-09-26T16:02:52.735Z,1.70
2022-09-26T16:05:21.886Z,1.63
2022-09-26T16:07:52.317Z,2.22
2022-09-26T16:10:28.534Z,1.80
2022-09-26T16:12:59.382Z,1.30
2022-09-26T16:15:30.724Z,2.28
2022-09-26T16:17:58.846Z,1.10
2022-09-26T16:20:30.866Z,2.03
2022-09-26T16:23:05.097Z,0.85
2022-09-26T16:25:48.014Z,1.20
2022-09-26T16:28:17.778Z,1.40
2022-09-26T16:30:51.732Z,3.35
2022-09-26T16:33:37.742Z,1.85
2022-09-26T16:36:41.636Z,2.47
2022-09-26T16:39:20.304Z,1.80
2022-09-26T16:42:02.743Z,1.83
2022-09-26T16:44:36.712Z,1.42
2022-09-26T16:47:07.545Z,1.33
2022-09-26T16:49:46.456Z,2.03
2022-09-26T16:52:19.522Z,1.90
2022-09-26T16:54:46.709Z,2.17
2022-09-26T16:57:20.377Z,3.08
2022-09-26T16:59:47.279Z,3.70
2022-09-26T17:02:14.789Z,3.60
2022-09-26T17:04:43.388Z,2.05
2022-09-26T17:07:15.577Z,5.40
2022-09-26T17:09:44.031Z,1.83
2022-09-26T17:12:21.998Z,3.30
2022-09-26T17:14:51.975Z,3.03
2022-09-26T17:17:30.634Z,2.53
2022-09-26T17:19:59.556Z,3.00
2022-09-26T17:22:27.471Z,3.13
2022-09-26T17:24:54.641Z,5.47
2022-09-26T17:27:28.813Z,3.47
2022-09-26T17:30:00.524Z,3.03
2022-09-26T17:32:28.379Z,3.40
2022-09-26T17:35:01.095Z,3.15
2022-09-26T17:37:28.691Z,3.22
2022-09-26T17:39:56.205Z,3.55
2022-09-26T17:42:23.707Z,4.07
2022-09-26T17:44:51.191Z,3.03
2022-09-26T17:47:19.759Z,3.65
2022-09-26T17:49:56.420Z,3.20
2022-09-26T17:52:32.254Z,4.38
2022-09-26T17:55:02.387Z,3.28
2022-09-26T17:57:38.185Z,4.65
2022-09-26T18:00:11.245Z,3.95
2022-09-26T18:02:43.776Z,3.60
2022-09-26T18:05:19.589Z,3.70
2022-09-26T18:07:47.377Z,3.17
2022-09-26T18:10:19.602Z,3.80
2022-09-26T18:15:17.339Z,3.95
2022-09-26T18:17:44.105Z,3.40
2022-09-26T18:20:11.221Z,3.30
2022-09-26T18:22:37.984Z,2.97
2022-09-26T18:25:08.398Z,4.72
2022-09-26T18:27:41.706Z,3.63
2022-09-26T18:30:13.802Z,3.50
2022-09-26T18:35:20.014Z,6.25
2022-09-26T18:37:46.866Z,3.38
2022-09-26T18:40:15.281Z,3.92
2022-09-26T18:42:44.623Z,4.78
2022-09-26T18:45:23.481Z,5.05
2022-09-26T18:47:50.355Z,4.70
2022-09-26T18:50:37.952Z,4.38
2022-09-26T18:53:12.626Z,4.65
2022-09-26T18:55:57.891Z,4.03
2022-09-26T18:58:24.699Z,3.28
2022-09-26T19:00:55.151Z,3.67
2022-09-26T19:03:23.679Z,3.60
2022-09-26T19:05:52.662Z,3.45
2022-09-26T19:08:36.802Z,3.60
2022-09-26T19:11:12.936Z,3.00
2022-09-26T19:13:41.509Z,3.38
2022-09-26T19:16:09.303Z,4.15
2022-09-26T19:18:36.470Z,3.33
2022-09-26T19:21:06.866Z,4.18
2022-09-26T19:23:36.398Z,3.83
2022-09-26T19:26:06.441Z,3.75
2022-09-26T19:28:36.166Z,5.93
2022-09-26T19:31:04.124Z,4.40
2022-09-26T19:33:31.243Z,2.85
2022-09-26T19:35:58.446Z,3.67
2022-09-26T19:38:26.720Z,2.72
2022-09-26T19:40:54.038Z,5.70
2022-09-26T19:43:22.093Z,5.15
2022-09-26T19:45:52.448Z,4.00
2022-09-26T19:48:22.795Z,3.30
2022-09-26T19:50:52.640Z,4.13
2022-09-26T19:53:21.355Z,6.45
2022-09-26T19:55:50.502Z,3.63
2022-09-26T19:58:20.475Z,2.92
2022-09-26T20:00:55.947Z,5.00
2022-09-26T20:03:40.591Z,3.20
2022-09-26T20:06:14.877Z,4.20
2022-09-26T20:08:41.925Z,2.72
2022-09-26T20:11:09.398Z,3.42
2022-09-26T20:13:56.216Z,3.33
2022-09-26T20:16:23.716Z,3.55
2022-09-26T20:18:51.637Z,3.30
2022-09-26T20:21:21.790Z,3.88
2022-09-26T20:23:49.117Z,3.50
2022-09-26T20:26:17.313Z,4.78
2022-09-26T20:28:44.585Z,3.33
2022-09-26T20:31:28.884Z,4.95
2022-09-26T20:34:00.190Z,4.15
2022-09-26T20:36:35.779Z,3.00
2022-09-26T20:39:06.643Z,3.22
2022-09-26T20:41:36.597Z,3.72
2022-09-26T20:44:11.635Z,3.78
2022-09-26T20:46:40.820Z,3.97
2022-09-26T20:49:14.888Z,2.78
2022-09-26T20:51:43.426Z,4.40
2022-09-26T20:54:24.656Z,3.00
2022-09-26T20:56:52.371Z,3.30
2022-09-26T20:59:19.225Z,3.55
2022-09-26T21:01:46.210Z,2.95
2022-09-26T21:04:15.326Z,3.53
2022-09-26T21:06:42.599Z,2.65
2022-09-26T21:09:18.682Z,3.08
2022-09-26T21:11:49.069Z,4.07
2022-09-26T21:14:18.790Z,5.63
2022-09-26T21:16:48.492Z,3.15
2022-09-26T21:19:24.268Z,3.75
2022-09-26T21:21:53.862Z,3.45
2022-09-26T21:24:29.006Z,5.88
2022-09-26T21:26:55.709Z,3.50
2022-09-26T21:29:22.477Z,3.20
2022-09-26T21:31:54.414Z,4.65
2022-09-26T21:34:24.736Z,3.17
2022-09-26T21:36:56.025Z,4.10
2022-09-26T21:39:24.826Z,3.95
2022-09-26T21:41:56.117Z,4.90
2022-09-26T21:44:43.665Z,6.50
2022-09-26T21:47:10.532Z,4.25
2022-09-26T21:49:40.050Z,4.03
2022-09-26T21:52:17.454Z,7.60
2022-09-26T21:54:45.342Z,3.72
2022-09-26T21:57:23.769Z,5.00
2022-09-26T21:59:53.440Z,4.45
2022-09-26T22:02:20.740Z,4.40
2022-09-26T22:04:48.053Z,3.95
2022-09-26T22:07:14.869Z,5.22
2022-09-26T22:09:42.276Z,6.05
2022-09-26T22:12:10.861Z,4.90
2022-09-26T22:14:37.683Z,4.63
2022-09-26T22:17:04.493Z,3.78
2022-09-26T22:19:33.564Z,5.97
2022-09-26T22:22:01.567Z,7.10
2022-09-26T22:24:28.516Z,4.88
2022-09-26T22:26:55.401Z,4.13
2022-09-26T22:29:22.141Z,6.55
2022-09-26T22:31:48.850Z,6.50
2022-09-26T22:34:15.887Z,3.85
2022-09-26T22:36:42.616Z,3.35
2022-09-26T22:39:09.362Z,3.30
2022-09-26T22:41:36.151Z,6.03
2022-09-26T22:44:04.071Z,3.95
2022-09-26T22:46:33.880Z,4.05
2022-09-26T22:49:01.152Z,3.90
2022-09-26T22:51:28.307Z,3.97
2022-09-26T22:53:55.117Z,5.60
2022-09-26T22:56:22.165Z,3.85
2022-09-26T22:58:51.405Z,3.85
2022-09-26T23:01:22.515Z,4.97
2022-09-26T23:03:49.836Z,6.13
2022-09-26T23:06:16.735Z,6.35
2022-09-26T23:08:43.433Z,4.07
2022-09-26T23:11:12.365Z,5.57
2022-09-26T23:13:39.662Z,3.80
2022-09-26T23:16:11.852Z,3.95
2022-09-26T23:21:10.872Z,4.18
2022-09-26T23:23:38.654Z,4.45
2022-09-26T23:26:07.028Z,4.10
2022-09-26T23:28:34.752Z,5.57
2022-09-26T23:31:09.187Z,4.57
2022-09-26T23:33:37.193Z,4.50
2022-09-26T23:36:05.085Z,6.45
2022-09-26T23:38:32.073Z,4.45
2022-09-26T23:40:59.007Z,4.38
2022-09-26T23:43:25.840Z,4.03
2022-09-26T23:45:52.740Z,4.03
2022-09-26T23:48:19.449Z,4.40
2022-09-26T23:50:47.422Z,5.50
2022-09-26T23:53:15.910Z,4.00
2022-09-26T23:55:43.591Z,3.92
2022-09-26T23:58:11.832Z,4.43
